sensor_id;sensor_type;location;lat;lon;timestamp;pressure;altitude;pressure_sealevel;temperature;humidity
16255;BME280;8235;52.198;9.904;2023-09-18T00:00:48;100287.25;;;19.08;98.52
16255;BME280;8235;52.198;9.904;2023-09-18T00:03:16;100284.56;;;19.08;98.55
16255;BME280;8235;52.198;9.904;2023-09-18T00:05:43;100277.47;;;19.07;98.71
16255;BME280;8235;52.198;9.904;2023-09-18T00:08:09;100273.91;;;19.06;98.36
16255;BME280;8235;52.198;9.904;2023-09-18T00:10:37;100280.31;;;19.05;98.49
16255;BME280;8235;52.198;9.904;2023-09-18T00:13:04;100263.44;;;19.03;98.78
16255;BME280;8235;52.198;9.904;2023-09-18T00:15:30;100257.34;;;19.01;99.17
16255;BME280;8235;52.198;9.904;2023-09-18T00:17:57;100240.31;;;19.01;99.49
16255;BME280;8235;52.198;9.904;2023-09-18T00:20:23;100237.97;;;18.98;97.92
16255;BME280;8235;52.198;9.904;2023-09-18T00:22:52;100232.97;;;18.85;96.25
16255;BME280;8235;52.198;9.904;2023-09-18T00:25:18;100234.41;;;18.71;96.17
16255;BME280;8235;52.198;9.904;2023-09-18T00:27:46;100241.63;;;18.63;97.45
16255;BME280;8235;52.198;9.904;2023-09-18T00:30:12;100232.59;;;18.54;98.51
16255;BME280;8235;52.198;9.904;2023-09-18T00:32:39;100224.63;;;18.45;99.02
16255;BME280;8235;52.198;9.904;2023-09-18T00:35:06;100216.47;;;18.36;99.86
16255;BME280;8235;52.198;9.904;2023-09-18T00:37:33;100212.22;;;18.34;100.00
16255;BME280;8235;52.198;9.904;2023-09-18T00:40:01;100216.94;;;18.32;100.00
16255;BME280;8235;52.198;9.904;2023-09-18T00:42:27;100207.16;;;18.31;100.00
16255;BME280;8235;52.198;9.904;2023-09-18T00:44:55;100209.84;;;18.31;100.00
16255;BME280;8235;52.198;9.904;2023-09-18T00:47:21;100192.81;;;18.30;100.00
16255;BME280;8235;52.198;9.904;2023-09-18T00:49:49;100193.34;;;18.34;100.00
16255;BME280;8235;52.198;9.904;2023-09-18T00:52:19;100190.66;;;18.34;100.00
16255;BME280;8235;52.198;9.904;2023-09-18T00:54:47;100181.88;;;18.32;100.00
16255;BME280;8235;52.198;9.904;2023-09-18T00:57:14;100183.72;;;18.31;100.00
16255;BME280;8235;52.198;9.904;2023-09-18T00:59:41;100183.19;;;18.28;100.00
16255;BME280;8235;52.198;9.904;2023-09-18T01:02:09;100182.34;;;18.27;100.00
16255;BME280;8235;52.198;9.904;2023-09-18T01:04:37;100162.66;;;18.27;100.00
16255;BME280;8235;52.198;9.904;2023-09-18T01:07:09;100154.88;;;18.24;100.00
16255;BME280;8235;52.198;9.904;2023-09-18T01:09:36;100157.03;;;18.20;100.00
16255;BME280;8235;52.198;9.904;2023-09-18T01:12:08;100157.19;;;18.19;100.00
16255;BME280;8235;52.198;9.904;2023-09-18T01:14:40;100153.97;;;18.15;100.00
16255;BME280;8235;52.198;9.904;2023-09-18T01:17:11;100146.03;;;18.14;100.00
16255;BME280;8235;52.198;9.904;2023-09-18T01:19:40;100143.34;;;18.14;100.00
16255;BME280;8235;52.198;9.904;2023-09-18T01:22:07;100135.41;;;18.12;100.00
16255;BME280;8235;52.198;9.904;2023-09-18T01:24:37;100130.88;;;18.13;100.00
16255;BME280;8235;52.198;9.904;2023-09-18T01:27:05;100130.03;;;18.12;100.00
16255;BME280;8235;52.198;9.904;2023-09-18T01:29:31;100127.31;;;18.12;100.00
16255;BME280;8235;52.198;9.904;2023-09-18T01:31:58;100129.19;;;18.12;100.00
16255;BME280;8235;52.198;9.904;2023-09-18T01:34:27;100134.91;;;18.09;100.00
16255;BME280;8235;52.198;9.904;2023-09-18T01:36:57;100129.97;;;18.04;100.00
16255;BME280;8235;52.198;9.904;2023-09-18T01:39:24;100126.38;;;17.95;100.00
16255;BME280;8235;52.198;9.904;2023-09-18T01:41:54;100129.88;;;17.88;100.00
16255;BME280;8235;52.198;9.904;2023-09-18T01:44:20;100122.94;;;17.85;100.00
16255;BME280;8235;52.198;9.904;2023-09-18T01:46:47;100128.63;;;17.82;100.00
16255;BME280;8235;52.198;9.904;2023-09-18T01:49:15;100119.00;;;17.80;100.00
16255;BME280;8235;52.198;9.904;2023-09-18T01:51:41;100124.41;;;17.80;100.00
16255;BME280;8235;52.198;9.904;2023-09-18T01:54:08;100118.16;;;17.79;100.00
16255;BME280;8235;52.198;9.904;2023-09-18T01:56:34;100113.78;;;17.78;100.00
16255;BME280;8235;52.198;9.904;2023-09-18T01:59:02;100107.38;;;17.79;100.00
16255;BME280;8235;52.198;9.904;2023-09-18T02:01:28;100105.69;;;17.78;100.00
16255;BME280;8235;52.198;9.904;2023-09-18T02:03:55;100112.63;;;17.81;100.00
16255;BME280;8235;52.198;9.904;2023-09-18T02:06:21;100101.69;;;17.82;100.00
16255;BME280;8235;52.198;9.904;2023-09-18T02:08:48;100094.63;;;17.81;100.00
16255;BME280;8235;52.198;9.904;2023-09-18T02:11:14;100104.38;;;17.82;100.00
16255;BME280;8235;52.198;9.904;2023-09-18T02:13:41;100092.63;;;17.83;100.00
16255;BME280;8235;52.198;9.904;2023-09-18T02:16:09;100095.31;;;17.83;100.00
16255;BME280;8235;52.198;9.904;2023-09-18T02:18:35;100089.06;;;17.83;100.00
16255;BME280;8235;52.198;9.904;2023-09-18T02:21:02;100090.91;;;17.82;100.00
16255;BME280;8235;52.198;9.904;2023-09-18T02:23:29;100076.59;;;17.82;100.00
16255;BME280;8235;52.198;9.904;2023-09-18T02:25:56;100077.75;;;17.79;100.00
16255;BME280;8235;52.198;9.904;2023-09-18T02:28:22;100075.06;;;17.79;100.00
16255;BME280;8235;52.198;9.904;2023-09-18T02:30:49;100084.47;;;17.75;100.00
16255;BME280;8235;52.198;9.904;2023-09-18T02:33:16;100085.66;;;17.73;100.00
16255;BME280;8235;52.198;9.904;2023-09-18T02:35:43;100071.63;;;17.69;100.00
16255;BME280;8235;52.198;9.904;2023-09-18T02:38:09;100062.19;;;17.65;100.00
16255;BME280;8235;52.198;9.904;2023-09-18T02:40:36;100060.47;;;17.64;100.00
16255;BME280;8235;52.198;9.904;2023-09-18T02:43:03;100057.91;;;17.62;100.00
16255;BME280;8235;52.198;9.904;2023-09-18T02:45:29;100051.84;;;17.60;100.00
16255;BME280;8235;52.198;9.904;2023-09-18T02:47:55;100053.84;;;17.58;100.00
16255;BME280;8235;52.198;9.904;2023-09-18T02:50:23;100045.06;;;17.56;100.00
16255;BME280;8235;52.198;9.904;2023-09-18T02:52:50;100045.25;;;17.55;100.00
16255;BME280;8235;52.198;9.904;2023-09-18T02:55:16;100038.16;;;17.54;100.00
16255;BME280;8235;52.198;9.904;2023-09-18T02:57:43;100046.41;;;17.52;100.00
16255;BME280;8235;52.198;9.904;2023-09-18T03:00:10;100041.88;;;17.53;100.00
16255;BME280;8235;52.198;9.904;2023-09-18T03:02:37;100039.88;;;17.55;100.00
16255;BME280;8235;52.198;9.904;2023-09-18T03:05:04;100032.09;;;17.52;100.00
16255;BME280;8235;52.198;9.904;2023-09-18T03:07:32;100023.63;;;17.47;100.00
16255;BME280;8235;52.198;9.904;2023-09-18T03:09:58;100028.47;;;17.43;100.00
16255;BME280;8235;52.198;9.904;2023-09-18T03:12:25;100020.72;;;17.40;100.00
16255;BME280;8235;52.198;9.904;2023-09-18T03:14:51;100012.13;;;17.37;100.00
16255;BME280;8235;52.198;9.904;2023-09-18T03:17:18;100014.97;;;17.35;100.00
16255;BME280;8235;52.198;9.904;2023-09-18T03:19:47;100015.13;;;17.33;100.00
16255;BME280;8235;52.198;9.904;2023-09-18T03:22:14;100012.59;;;17.32;100.00
16255;BME280;8235;52.198;9.904;2023-09-18T03:24:42;100011.75;;;17.31;100.00
16255;BME280;8235;52.198;9.904;2023-09-18T03:27:08;100010.03;;;17.30;100.00
16255;BME280;8235;52.198;9.904;2023-09-18T03:29:34;100008.03;;;17.32;100.00
16255;BME280;8235;52.198;9.904;2023-09-18T03:32:01;100004.50;;;17.32;100.00
16255;BME280;8235;52.198;9.904;2023-09-18T03:34:27;99993.91;;;17.30;100.00
16255;BME280;8235;52.198;9.904;2023-09-18T03:36:54;99982.44;;;17.28;100.00
16255;BME280;8235;52.198;9.904;2023-09-18T03:39:20;99980.22;;;17.24;100.00
16255;BME280;8235;52.198;9.904;2023-09-18T03:41:48;99977.81;;;17.21;100.00
16255;BME280;8235;52.198;9.904;2023-09-18T03:44:15;99975.63;;;17.16;100.00
16255;BME280;8235;52.198;9.904;2023-09-18T03:46:42;99957.09;;;17.13;100.00
16255;BME280;8235;52.198;9.904;2023-09-18T03:49:08;99966.16;;;17.12;100.00
16255;BME280;8235;52.198;9.904;2023-09-18T03:51:35;99958.25;;;17.11;100.00
16255;BME280;8235;52.198;9.904;2023-09-18T03:54:01;99949.34;;;17.10;100.00
16255;BME280;8235;52.198;9.904;2023-09-18T03:56:27;99950.19;;;17.11;100.00
16255;BME280;8235;52.198;9.904;2023-09-18T03:58:55;99951.03;;;17.11;100.00
16255;BME280;8235;52.198;9.904;2023-09-18T04:01:23;99939.41;;;17.11;100.00
16255;BME280;8235;52.198;9.904;2023-09-18T04:03:50;99935.72;;;17.12;100.00
16255;BME280;8235;52.198;9.904;2023-09-18T04:06:16;99932.03;;;17.13;100.00
16255;BME280;8235;52.198;9.904;2023-09-18T04:08:45;99920.28;;;17.14;100.00
16255;BME280;8235;52.198;9.904;2023-09-18T04:11:12;99919.13;;;17.16;100.00
16255;BME280;8235;52.198;9.904;2023-09-18T04:13:38;99906.50;;;17.17;100.00
16255;BME280;8235;52.198;9.904;2023-09-18T04:16:06;99912.59;;;17.19;100.00
16255;BME280;8235;52.198;9.904;2023-09-18T04:18:33;99906.34;;;17.18;100.00
16255;BME280;8235;52.198;9.904;2023-09-18T04:20:59;99899.97;;;17.19;100.00
16255;BME280;8235;52.198;9.904;2023-09-18T04:23:26;99901.81;;;17.19;100.00
16255;BME280;8235;52.198;9.904;2023-09-18T04:25:54;99891.22;;;17.17;100.00
16255;BME280;8235;52.198;9.904;2023-09-18T04:28:21;99890.53;;;17.15;100.00
16255;BME280;8235;52.198;9.904;2023-09-18T04:30:48;99881.59;;;17.15;100.00
16255;BME280;8235;52.198;9.904;2023-09-18T04:33:16;99863.78;;;17.14;100.00
16255;BME280;8235;52.198;9.904;2023-09-18T04:35:43;99871.31;;;17.10;100.00
16255;BME280;8235;52.198;9.904;2023-09-18T04:38:09;99859.00;;;17.08;100.00
16255;BME280;8235;52.198;9.904;2023-09-18T04:40:36;99852.94;;;17.06;100.00
16255;BME280;8235;52.198;9.904;2023-09-18T04:43:03;99849.41;;;17.05;100.00
16255;BME280;8235;52.198;9.904;2023-09-18T04:45:30;99847.72;;;17.04;100.00
16255;BME280;8235;52.198;9.904;2023-09-18T04:47:56;99834.41;;;17.02;100.00
16255;BME280;8235;52.198;9.904;2023-09-18T04:50:24;99829.88;;;17.03;100.00
16255;BME280;8235;52.198;9.904;2023-09-18T04:52:51;99830.06;;;17.02;100.00
16255;BME280;8235;52.198;9.904;2023-09-18T04:55:19;99825.69;;;17.00;100.00
16255;BME280;8235;52.198;9.904;2023-09-18T04:57:46;99814.94;;;17.00;100.00
16255;BME280;8235;52.198;9.904;2023-09-18T05:00:13;99811.41;;;17.00;100.00
16255;BME280;8235;52.198;9.904;2023-09-18T05:02:40;99814.75;;;17.02;100.00
16255;BME280;8235;52.198;9.904;2023-09-18T05:05:07;99808.38;;;17.03;100.00
16255;BME280;8235;52.198;9.904;2023-09-18T05:07:36;99800.13;;;17.05;100.00
16255;BME280;8235;52.198;9.904;2023-09-18T05:10:03;99796.28;;;17.07;100.00
16255;BME280;8235;52.198;9.904;2023-09-18T05:12:31;99791.59;;;17.09;100.00
16255;BME280;8235;52.198;9.904;2023-09-18T05:14:57;99784.91;;;17.13;100.00
16255;BME280;8235;52.198;9.904;2023-09-18T05:17:39;99785.28;;;17.18;100.00
16255;BME280;8235;52.198;9.904;2023-09-18T05:20:08;99786.63;;;17.22;100.00
16255;BME280;8235;52.198;9.904;2023-09-18T05:22:38;99799.44;;;17.28;100.00
16255;BME280;8235;52.198;9.904;2023-09-18T05:25:05;99808.03;;;17.32;100.00
16255;BME280;8235;52.198;9.904;2023-09-18T05:27:33;99829.44;;;17.42;100.00
16255;BME280;8235;52.198;9.904;2023-09-18T05:29:59;99809.97;;;17.56;100.00
16255;BME280;8235;52.198;9.904;2023-09-18T05:32:26;99814.78;;;17.70;100.00
16255;BME280;8235;52.198;9.904;2023-09-18T05:34:52;99817.53;;;17.86;100.00
16255;BME280;8235;52.198;9.904;2023-09-18T05:37:19;99813.03;;;18.03;100.00
16255;BME280;8235;52.198;9.904;2023-09-18T05:39:47;99814.91;;;18.19;100.00
16255;BME280;8235;52.198;9.904;2023-09-18T05:42:14;99805.16;;;18.34;100.00
16255;BME280;8235;52.198;9.904;2023-09-18T05:44:42;99809.88;;;18.48;100.00
16255;BME280;8235;52.198;9.904;2023-09-18T05:47:09;99807.56;;;18.61;100.00
16255;BME280;8235;52.198;9.904;2023-09-18T05:49:36;99804.19;;;18.76;100.00
16255;BME280;8235;52.198;9.904;2023-09-18T05:52:02;99796.41;;;18.89;100.00
16255;BME280;8235;52.198;9.904;2023-09-18T05:54:29;99787.75;;;19.01;100.00
16255;BME280;8235;52.198;9.904;2023-09-18T05:56:57;99784.72;;;19.13;100.00
16255;BME280;8235;52.198;9.904;2023-09-18T05:59:23;99782.81;;;19.29;98.56
16255;BME280;8235;52.198;9.904;2023-09-18T06:01:50;99779.38;;;19.43;97.20
16255;BME280;8235;52.198;9.904;2023-09-18T06:04:19;99778.66;;;19.58;95.80
16255;BME280;8235;52.198;9.904;2023-09-18T06:06:46;99777.63;;;19.67;94.59
16255;BME280;8235;52.198;9.904;2023-09-18T06:09:12;99773.50;;;19.79;93.32
16255;BME280;8235;52.198;9.904;2023-09-18T06:11:39;99759.38;;;19.92;91.40
16255;BME280;8235;52.198;9.904;2023-09-18T06:14:07;99745.31;;;20.04;90.50
16255;BME280;8235;52.198;9.904;2023-09-18T06:16:33;99732.72;;;20.11;89.72
16255;BME280;8235;52.198;9.904;2023-09-18T06:18:59;99726.25;;;20.21;88.49
16255;BME280;8235;52.198;9.904;2023-09-18T06:21:26;99713.69;;;20.28;88.39
16255;BME280;8235;52.198;9.904;2023-09-18T06:23:54;99700.28;;;20.34;88.03
16255;BME280;8235;52.198;9.904;2023-09-18T06:26:20;99709.56;;;20.40;88.00
16255;BME280;8235;52.198;9.904;2023-09-18T06:28:47;99708.16;;;20.44;87.96
16255;BME280;8235;52.198;9.904;2023-09-18T06:31:23;99698.47;;;20.50;88.30
16255;BME280;8235;52.198;9.904;2023-09-18T06:33:49;99691.00;;;20.52;88.19
16255;BME280;8235;52.198;9.904;2023-09-18T06:36:16;99688.78;;;20.55;88.01
16255;BME280;8235;52.198;9.904;2023-09-18T06:38:42;99688.03;;;20.61;87.28
16255;BME280;8235;52.198;9.904;2023-09-18T06:41:09;99699.31;;;20.65;86.13
16255;BME280;8235;52.198;9.904;2023-09-18T06:43:35;99698.97;;;20.68;86.13
16255;BME280;8235;52.198;9.904;2023-09-18T06:46:02;99701.31;;;20.71;86.07
16255;BME280;8235;52.198;9.904;2023-09-18T06:48:31;99694.50;;;20.75;85.63
16255;BME280;8235;52.198;9.904;2023-09-18T06:50:58;99697.88;;;20.77;85.46
16255;BME280;8235;52.198;9.904;2023-09-18T06:53:25;99707.00;;;20.76;86.08
16255;BME280;8235;52.198;9.904;2023-09-18T06:55:51;99703.47;;;20.75;86.35
16255;BME280;8235;52.198;9.904;2023-09-18T06:58:18;99697.66;;;20.78;85.18
16255;BME280;8235;52.198;9.904;2023-09-18T07:00:44;99695.25;;;20.84;84.48
16255;BME280;8235;52.198;9.904;2023-09-18T07:03:11;99692.53;;;20.84;84.36
16255;BME280;8235;52.198;9.904;2023-09-18T07:05:39;99707.00;;;20.91;83.24
16255;BME280;8235;52.198;9.904;2023-09-18T07:08:08;99707.94;;;20.98;81.75
16255;BME280;8235;52.198;9.904;2023-09-18T07:10:37;99712.59;;;21.04;81.39
16255;BME280;8235;52.198;9.904;2023-09-18T07:13:03;99709.53;;;21.07;81.59
16255;BME280;8235;52.198;9.904;2023-09-18T07:15:30;99718.97;;;21.11;81.08
16255;BME280;8235;52.198;9.904;2023-09-18T07:17:57;99715.03;;;21.13;81.42
16255;BME280;8235;52.198;9.904;2023-09-18T07:20:23;99713.81;;;21.16;81.54
16255;BME280;8235;52.198;9.904;2023-09-18T07:22:51;99720.25;;;21.15;81.04
16255;BME280;8235;52.198;9.904;2023-09-18T07:25:18;99721.09;;;21.15;80.89
16255;BME280;8235;52.198;9.904;2023-09-18T07:27:44;99715.47;;;21.17;81.04
16255;BME280;8235;52.198;9.904;2023-09-18T07:30:11;99723.25;;;21.20;81.09
16255;BME280;8235;52.198;9.904;2023-09-18T07:32:41;99704.13;;;21.22;81.48
16255;BME280;8235;52.198;9.904;2023-09-18T07:35:08;99713.75;;;21.24;81.20
16255;BME280;8235;52.198;9.904;2023-09-18T07:37:35;99733.16;;;21.28;81.10
16255;BME280;8235;52.198;9.904;2023-09-18T07:40:04;99719.44;;;21.29;81.31
16255;BME280;8235;52.198;9.904;2023-09-18T07:42:30;99714.69;;;21.31;80.85
16255;BME280;8235;52.198;9.904;2023-09-18T07:44:57;99719.03;;;21.32;80.76
16255;BME280;8235;52.198;9.904;2023-09-18T07:47:23;99722.59;;;21.33;80.74
16255;BME280;8235;52.198;9.904;2023-09-18T07:49:50;99730.53;;;21.34;80.32
16255;BME280;8235;52.198;9.904;2023-09-18T07:52:16;99724.28;;;21.34;79.68
16255;BME280;8235;52.198;9.904;2023-09-18T07:54:43;99718.00;;;21.33;79.62
16255;BME280;8235;52.198;9.904;2023-09-18T07:57:11;99725.41;;;21.39;79.41
16255;BME280;8235;52.198;9.904;2023-09-18T07:59:38;99727.72;;;21.42;79.12
16255;BME280;8235;52.198;9.904;2023-09-18T08:02:07;99715.69;;;21.45;78.92
16255;BME280;8235;52.198;9.904;2023-09-18T08:04:34;99728.66;;;21.50;77.84
16255;BME280;8235;52.198;9.904;2023-09-18T08:07:01;99730.03;;;21.60;77.58
16255;BME280;8235;52.198;9.904;2023-09-18T08:09:27;99725.72;;;21.66;77.05
16255;BME280;8235;52.198;9.904;2023-09-18T08:11:54;99724.56;;;21.75;76.80
16255;BME280;8235;52.198;9.904;2023-09-18T08:14:22;99737.19;;;21.82;76.27
16255;BME280;8235;52.198;9.904;2023-09-18T08:16:55;99749.28;;;21.87;76.00
16255;BME280;8235;52.198;9.904;2023-09-18T08:19:22;99749.75;;;21.90;75.66
16255;BME280;8235;52.198;9.904;2023-09-18T08:21:51;99753.75;;;21.94;75.50
16255;BME280;8235;52.198;9.904;2023-09-18T08:24:17;99752.34;;;21.98;75.59
16255;BME280;8235;52.198;9.904;2023-09-18T08:26:44;99758.88;;;22.04;75.40
16255;BME280;8235;52.198;9.904;2023-09-18T08:29:10;99747.66;;;22.07;75.16
16255;BME280;8235;52.198;9.904;2023-09-18T08:31:38;99753.34;;;22.12;74.92
16255;BME280;8235;52.198;9.904;2023-09-18T08:34:05;99759.50;;;22.21;73.87
16255;BME280;8235;52.198;9.904;2023-09-18T08:36:31;99744.50;;;22.25;73.43
16255;BME280;8235;52.198;9.904;2023-09-18T08:38:57;99754.59;;;22.31;73.59
16255;BME280;8235;52.198;9.904;2023-09-18T08:41:28;99747.97;;;22.40;72.98
16255;BME280;8235;52.198;9.904;2023-09-18T08:44:00;99740.56;;;22.48;72.75
16255;BME280;8235;52.198;9.904;2023-09-18T08:46:27;99741.25;;;22.57;71.88
16255;BME280;8235;52.198;9.904;2023-09-18T08:48:55;99755.06;;;22.62;72.05
16255;BME280;8235;52.198;9.904;2023-09-18T08:51:22;99747.38;;;22.66;72.15
16255;BME280;8235;52.198;9.904;2023-09-18T08:53:49;99748.00;;;22.68;72.23
16255;BME280;8235;52.198;9.904;2023-09-18T08:56:17;99755.84;;;22.77;71.09
16255;BME280;8235;52.198;9.904;2023-09-18T08:58:44;99747.50;;;22.79;70.62
16255;BME280;8235;52.198;9.904;2023-09-18T09:01:11;99748.78;;;22.83;70.51
16255;BME280;8235;52.198;9.904;2023-09-18T09:03:39;99749.69;;;22.90;70.16
16255;BME280;8235;52.198;9.904;2023-09-18T09:06:07;99740.31;;;22.93;69.86
16255;BME280;8235;52.198;9.904;2023-09-18T09:08:35;99747.00;;;22.97;69.95
16255;BME280;8235;52.198;9.904;2023-09-18T09:11:01;99739.75;;;23.04;69.19
16255;BME280;8235;52.198;9.904;2023-09-18T09:13:28;99739.97;;;23.09;68.44
16255;BME280;8235;52.198;9.904;2023-09-18T09:15:56;99731.41;;;23.12;69.12
16255;BME280;8235;52.198;9.904;2023-09-18T09:18:23;99742.06;;;23.13;68.40
16255;BME280;8235;52.198;9.904;2023-09-18T09:20:54;99751.31;;;23.19;68.92
16255;BME280;8235;52.198;9.904;2023-09-18T09:23:24;99749.03;;;23.23;68.62
16255;BME280;8235;52.198;9.904;2023-09-18T09:25:51;99755.31;;;23.23;68.16
16255;BME280;8235;52.198;9.904;2023-09-18T09:28:29;99753.25;;;23.25;68.47
16255;BME280;8235;52.198;9.904;2023-09-18T09:31:00;99761.59;;;23.24;68.87
16255;BME280;8235;52.198;9.904;2023-09-18T09:33:27;99760.16;;;23.28;68.54
16255;BME280;8235;52.198;9.904;2023-09-18T09:35:55;99761.00;;;23.28;68.57
16255;BME280;8235;52.198;9.904;2023-09-18T09:38:29;99771.03;;;23.34;68.41
16255;BME280;8235;52.198;9.904;2023-09-18T09:40:57;99752.84;;;23.35;67.93
16255;BME280;8235;52.198;9.904;2023-09-18T09:43:25;99743.88;;;23.34;67.70
16255;BME280;8235;52.198;9.904;2023-09-18T09:45:57;99757.84;;;23.31;67.17
16255;BME280;8235;52.198;9.904;2023-09-18T09:48:24;99755.31;;;23.30;67.12
16255;BME280;8235;52.198;9.904;2023-09-18T09:50:51;99755.13;;;23.25;67.43
16255;BME280;8235;52.198;9.904;2023-09-18T09:53:45;99756.56;;;23.20;67.76
16255;BME280;8235;52.198;9.904;2023-09-18T09:56:13;99756.34;;;23.22;67.13
16255;BME280;8235;52.198;9.904;2023-09-18T09:58:40;99762.81;;;23.21;67.65
16255;BME280;8235;52.198;9.904;2023-09-18T10:01:11;99770.13;;;23.20;67.65
16255;BME280;8235;52.198;9.904;2023-09-18T10:03:43;99762.19;;;23.19;67.85
16255;BME280;8235;52.198;9.904;2023-09-18T10:06:10;99762.19;;;23.19;67.90
16255;BME280;8235;52.198;9.904;2023-09-18T10:08:38;99763.03;;;23.19;67.22
16255;BME280;8235;52.198;9.904;2023-09-18T10:11:09;99756.94;;;23.17;67.32
16255;BME280;8235;52.198;9.904;2023-09-18T10:13:41;99749.03;;;23.23;66.75
16255;BME280;8235;52.198;9.904;2023-09-18T10:16:12;99754.47;;;23.23;66.60
16255;BME280;8235;52.198;9.904;2023-09-18T10:18:45;99764.50;;;23.22;66.78
16255;BME280;8235;52.198;9.904;2023-09-18T10:21:23;99764.31;;;23.24;66.74
16255;BME280;8235;52.198;9.904;2023-09-18T10:24:02;99762.81;;;23.21;66.77
16255;BME280;8235;52.198;9.904;2023-09-18T10:26:35;99760.34;;;23.26;66.60
16255;BME280;8235;52.198;9.904;2023-09-18T10:29:09;99771.41;;;23.25;66.40
16255;BME280;8235;52.198;9.904;2023-09-18T10:31:39;99769.34;;;23.27;67.08
16255;BME280;8235;52.198;9.904;2023-09-18T10:34:06;99767.84;;;23.24;67.19
16255;BME280;8235;52.198;9.904;2023-09-18T10:36:34;99758.88;;;23.30;66.68
16255;BME280;8235;52.198;9.904;2023-09-18T10:39:02;99768.53;;;23.33;67.26
16255;BME280;8235;52.198;9.904;2023-09-18T10:41:35;99770.00;;;23.35;67.01
16255;BME280;8235;52.198;9.904;2023-09-18T10:44:03;99776.06;;;23.37;66.98
16255;BME280;8235;52.198;9.904;2023-09-18T10:46:30;99778.41;;;23.40;66.37
16255;BME280;8235;52.198;9.904;2023-09-18T10:48:58;99784.28;;;23.44;65.92
16255;BME280;8235;52.198;9.904;2023-09-18T10:51:25;99791.78;;;23.42;66.48
16255;BME280;8235;52.198;9.904;2023-09-18T10:53:52;99783.22;;;23.45;66.59
16255;BME280;8235;52.198;9.904;2023-09-18T10:56:19;99804.34;;;23.49;66.25
16255;BME280;8235;52.198;9.904;2023-09-18T10:58:55;99798.56;;;23.52;66.05
16255;BME280;8235;52.198;9.904;2023-09-18T11:01:23;99808.59;;;23.52;65.45
16255;BME280;8235;52.198;9.904;2023-09-18T11:03:52;99809.41;;;23.52;64.63
16255;BME280;8235;52.198;9.904;2023-09-18T11:06:19;99827.41;;;23.53;65.51
16255;BME280;8235;52.198;9.904;2023-09-18T11:08:49;99821.13;;;23.53;65.49
16255;BME280;8235;52.198;9.904;2023-09-18T11:11:19;99835.56;;;23.53;66.16
16255;BME280;8235;52.198;9.904;2023-09-18T11:13:48;99840.59;;;23.57;66.27
16255;BME280;8235;52.198;9.904;2023-09-18T11:16:33;99825.38;;;23.62;65.91
16255;BME280;8235;52.198;9.904;2023-09-18T11:19:09;99813.88;;;23.67;65.35
16255;BME280;8235;52.198;9.904;2023-09-18T11:21:36;99813.69;;;23.68;65.42
16255;BME280;8235;52.198;9.904;2023-09-18T11:24:04;99823.31;;;23.71;65.26
16255;BME280;8235;52.198;9.904;2023-09-18T11:26:33;99817.06;;;23.77;66.21
16255;BME280;8235;52.198;9.904;2023-09-18T11:29:03;99816.25;;;23.83;65.39
16255;BME280;8235;52.198;9.904;2023-09-18T11:31:46;99806.25;;;23.90;65.13
16255;BME280;8235;52.198;9.904;2023-09-18T11:34:15;99810.88;;;23.96;64.91
16255;BME280;8235;52.198;9.904;2023-09-18T11:36:42;99804.00;;;24.00;63.41
16255;BME280;8235;52.198;9.904;2023-09-18T11:39:09;99790.59;;;24.05;63.54
16255;BME280;8235;52.198;9.904;2023-09-18T11:41:37;99795.19;;;24.05;63.54
16255;BME280;8235;52.198;9.904;2023-09-18T11:44:34;99802.72;;;24.03;62.78
16255;BME280;8235;52.198;9.904;2023-09-18T11:47:08;99796.03;;;24.05;62.90
16255;BME280;8235;52.198;9.904;2023-09-18T11:49:38;99809.44;;;24.00;63.27
16255;BME280;8235;52.198;9.904;2023-09-18T11:52:07;99786.19;;;23.98;63.62
16255;BME280;8235;52.198;9.904;2023-09-18T11:54:34;99779.72;;;23.99;63.42
16255;BME280;8235;52.198;9.904;2023-09-18T11:57:03;99793.13;;;24.00;63.65
16255;BME280;8235;52.198;9.904;2023-09-18T11:59:37;99800.84;;;24.03;63.67
16255;BME280;8235;52.198;9.904;2023-09-18T12:04:33;99799.63;;;24.12;63.47
16255;BME280;8235;52.198;9.904;2023-09-18T12:07:00;99807.59;;;24.20;62.70
16255;BME280;8235;52.198;9.904;2023-09-18T12:09:28;99818.94;;;24.24;63.21
16255;BME280;8235;52.198;9.904;2023-09-18T12:11:56;99814.56;;;24.30;62.87
16255;BME280;8235;52.198;9.904;2023-09-18T12:14:22;99845.78;;;24.34;62.50
16255;BME280;8235;52.198;9.904;2023-09-18T12:16:50;99849.72;;;24.38;62.85
16255;BME280;8235;52.198;9.904;2023-09-18T12:19:17;99856.88;;;24.45;62.37
16255;BME280;8235;52.198;9.904;2023-09-18T12:21:50;99834.06;;;24.46;61.26
16255;BME280;8235;52.198;9.904;2023-09-18T12:24:23;99834.50;;;24.50;61.48
16255;BME280;8235;52.198;9.904;2023-09-18T12:26:51;99822.56;;;24.51;61.19
16255;BME280;8235;52.198;9.904;2023-09-18T12:29:17;99814.41;;;24.51;61.42
16255;BME280;8235;52.198;9.904;2023-09-18T12:31:44;99810.63;;;24.52;61.45
16255;BME280;8235;52.198;9.904;2023-09-18T12:34:18;99815.63;;;24.55;61.36
16255;BME280;8235;52.198;9.904;2023-09-18T12:36:46;99813.53;;;24.57;59.80
16255;BME280;8235;52.198;9.904;2023-09-18T12:39:13;99828.19;;;24.56;59.91
16255;BME280;8235;52.198;9.904;2023-09-18T12:41:41;99819.44;;;24.54;59.72
16255;BME280;8235;52.198;9.904;2023-09-18T12:44:09;99817.75;;;24.53;59.83
16255;BME280;8235;52.198;9.904;2023-09-18T12:46:36;99814.41;;;24.51;59.97
16255;BME280;8235;52.198;9.904;2023-09-18T12:49:20;99814.41;;;24.51;59.89
16255;BME280;8235;52.198;9.904;2023-09-18T12:51:56;99814.59;;;24.49;60.81
16255;BME280;8235;52.198;9.904;2023-09-18T12:54:37;99817.94;;;24.51;59.23
16255;BME280;8235;52.198;9.904;2023-09-18T12:57:06;99818.56;;;24.47;59.85
16255;BME280;8235;52.198;9.904;2023-09-18T12:59:34;99813.13;;;24.47;60.80
16255;BME280;8235;52.198;9.904;2023-09-18T13:02:01;99816.47;;;24.49;59.89
16255;BME280;8235;52.198;9.904;2023-09-18T13:04:31;99820.25;;;24.48;59.54
16255;BME280;8235;52.198;9.904;2023-09-18T13:07:06;99809.78;;;24.45;59.53
16255;BME280;8235;52.198;9.904;2023-09-18T13:09:33;99820.03;;;24.43;60.26